createdAt,value
2022-11-07T00:00:27.698Z,43.60
2022-11-07T00:02:54.107Z,48.22
2022-11-07T00:05:20.687Z,47.15
2022-11-07T00:07:47.066Z,44.03
2022-11-07T00:10:13.496Z,50.15
2022-11-07T00:12:39.805Z,51.75
2022-11-07T00:15:06.561Z,46.50
2022-11-07T00:17:32.968Z,47.50
2022-11-07T00:19:59.364Z,45.22
2022-11-07T00:22:25.937Z,47.53
2022-11-07T00:24:52.504Z,47.00
2022-11-07T00:27:18.963Z,47.67
2022-11-07T00:29:45.493Z,48.42
2022-11-07T00:32:11.832Z,47.67
2022-11-07T00:34:38.229Z,46.63
2022-11-07T00:37:04.605Z,48.65
2022-11-07T00:39:30.972Z,46.80
2022-11-07T00:41:57.305Z,48.80
2022-11-07T00:44:23.626Z,48.20
2022-11-07T00:46:49.942Z,48.60
2022-11-07T00:49:16.332Z,47.75
2022-11-07T00:51:42.765Z,49.85
2022-11-07T00:54:09.121Z,45.47
2022-11-07T00:56:35.629Z,48.13
2022-11-07T00:59:02.042Z,49.47
2022-11-07T01:01:31.385Z,47.67
2022-11-07T01:04:16.833Z,45.15
2022-11-07T01:06:45.247Z,47.28
2022-11-07T01:09:18.513Z,45.90
2022-11-07T01:11:45.951Z,43.85
2022-11-07T01:14:16.336Z,45.85
2022-11-07T01:16:42.925Z,42.88
2022-11-07T01:19:09.832Z,44.78
2022-11-07T01:21:41.106Z,46.95
2022-11-07T01:24:08.928Z,48.08
2022-11-07T01:26:37.412Z,49.30
2022-11-07T01:29:04.312Z,50.50
2022-11-07T01:31:33.535Z,52.83
2022-11-07T01:34:00.742Z,54.20
2022-11-07T01:36:27.729Z,54.67
2022-11-07T01:38:54.663Z,53.33
2022-11-07T01:41:25.394Z,55.30
2022-11-07T01:43:56.125Z,56.45
2022-11-07T01:46:30.586Z,53.25
2022-11-07T01:49:12.776Z,53.22
2022-11-07T01:51:43.844Z,55.67
2022-11-07T01:54:13.163Z,59.55
2022-11-07T01:56:43.105Z,57.88
2022-11-07T01:59:14.031Z,58.25
2022-11-07T02:01:41.339Z,58.72
2022-11-07T02:04:09.371Z,57.60
2022-11-07T02:06:47.855Z,59.38
2022-11-07T02:09:14.673Z,58.30
2022-11-07T02:11:41.085Z,56.28
2022-11-07T02:14:07.720Z,55.58
2022-11-07T02:16:37.173Z,60.47
2022-11-07T02:19:10.663Z,59.45
2022-11-07T02:21:45.973Z,60.97
2022-11-07T02:24:38.522Z,60.38
2022-11-07T02:27:11.434Z,58.80
2022-11-07T02:29:40.170Z,56.92
2022-11-07T02:32:09.129Z,61.97
2022-11-07T02:34:35.547Z,60.08
2022-11-07T02:37:05.106Z,60.08
2022-11-07T02:39:31.491Z,56.10
2022-11-07T02:42:00.826Z,56.33
2022-11-07T02:44:29.473Z,54.63
2022-11-07T02:46:56.599Z,57.95
2022-11-07T02:49:22.984Z,60.55
2022-11-07T02:51:49.284Z,56.30
2022-11-07T02:54:15.586Z,55.20
2022-11-07T02:56:41.957Z,58.53
2022-11-07T02:59:08.252Z,60.63
2022-11-07T03:01:34.696Z,58.42
2022-11-07T03:04:01.092Z,58.35
2022-11-07T03:06:27.449Z,58.25
2022-11-07T03:08:53.820Z,57.08
2022-11-07T03:11:20.530Z,59.83
2022-11-07T03:13:48.229Z,57.92
2022-11-07T03:16:15.749Z,55.30
2022-11-07T03:18:42.183Z,52.58
2022-11-07T03:21:08.602Z,58.67
2022-11-07T03:23:36.127Z,58.83
2022-11-07T03:26:03.527Z,59.03
2022-11-07T03:28:30.030Z,57.33
2022-11-07T03:31:00.634Z,60.15
2022-11-07T03:33:28.882Z,60.72
2022-11-07T03:35:55.208Z,56.42
2022-11-07T03:38:21.525Z,55.75
2022-11-07T03:40:47.934Z,54.25
2022-11-07T03:43:14.636Z,58.15
2022-11-07T03:45:41.633Z,52.75
2022-11-07T03:48:07.993Z,53.45
2022-11-07T03:50:34.344Z,57.13
2022-11-07T03:53:00.691Z,53.97
2022-11-07T03:55:27.065Z,56.70
2022-11-07T03:57:53.419Z,57.33
2022-11-07T04:00:19.827Z,56.55
2022-11-07T04:02:46.443Z,57.33
2022-11-07T04:05:13.284Z,55.30
2022-11-07T04:07:39.694Z,46.58
2022-11-07T04:10:06.305Z,52.90
2022-11-07T04:12:51.126Z,55.03
2022-11-07T04:15:36.523Z,55.75
2022-11-07T04:18:02.921Z,57.88
2022-11-07T04:20:29.433Z,57.47
2022-11-07T04:22:55.768Z,53.83
2022-11-07T04:25:42.025Z,56.88
2022-11-07T04:28:08.413Z,49.95
2022-11-07T04:30:34.944Z,48.28
2022-11-07T04:33:02.388Z,53.88
2022-11-07T04:35:31.511Z,49.97
2022-11-07T04:37:59.042Z,49.60
2022-11-07T04:40:25.743Z,50.13
2022-11-07T04:42:52.200Z,50.08
2022-11-07T04:45:18.730Z,49.97
2022-11-07T04:47:45.558Z,48.38
2022-11-07T04:50:14.536Z,45.90
2022-11-07T04:52:40.970Z,48.90
2022-11-07T04:55:08.782Z,44.70
2022-11-07T04:57:35.117Z,45.50
2022-11-07T05:00:02.475Z,48.28
2022-11-07T05:02:29.020Z,45.55
2022-11-07T05:04:55.474Z,48.10
2022-11-07T05:07:22.001Z,44.00
2022-11-07T05:09:48.362Z,44.13
2022-11-07T05:12:14.886Z,42.22
2022-11-07T05:14:41.351Z,44.85
2022-11-07T05:17:07.761Z,47.90
2022-11-07T05:19:34.267Z,42.00
2022-11-07T05:22:19.380Z,41.42
2022-11-07T05:24:45.760Z,44.83
2022-11-07T05:27:19.492Z,43.30
2022-11-07T05:29:45.922Z,41.08
2022-11-07T05:32:12.653Z,43.22
2022-11-07T05:34:39.200Z,41.95
2022-11-07T05:37:09.532Z,39.90
2022-11-07T05:39:36.679Z,41.53
2022-11-07T05:42:04.031Z,39.95
2022-11-07T05:44:31.200Z,39.20
2022-11-07T05:46:58.102Z,40.67
2022-11-07T05:49:24.921Z,38.78
2022-11-07T05:51:51.893Z,39.33
2022-11-07T05:54:18.268Z,39.90
2022-11-07T05:56:44.851Z,39.25
2022-11-07T05:59:11.373Z,37.47
2022-11-07T06:01:37.943Z,37.33
2022-11-07T06:04:05.382Z,43.08
2022-11-07T06:06:31.781Z,40.22
2022-11-07T06:08:58.425Z,40.53
2022-11-07T06:11:24.824Z,43.05
2022-11-07T06:13:54.038Z,39.45
2022-11-07T06:16:20.454Z,40.53
2022-11-07T06:18:46.807Z,41.30
2022-11-07T06:21:13.926Z,38.97
2022-11-07T06:23:40.351Z,39.20
2022-11-07T06:26:07.006Z,39.88
2022-11-07T06:28:33.449Z,38.55
2022-11-07T06:31:03.851Z,40.47
2022-11-07T06:33:30.217Z,36.97
2022-11-07T06:36:08.329Z,41.72
2022-11-07T06:38:35.301Z,42.95
2022-11-07T06:41:10.854Z,40.20
2022-11-07T06:43:37.797Z,39.05
2022-11-07T06:46:07.000Z,39.67
2022-11-07T06:48:33.874Z,43.72
2022-11-07T06:51:02.006Z,43.10
2022-11-07T06:53:28.855Z,44.97
2022-11-07T06:55:55.974Z,42.90
2022-11-07T06:58:22.888Z,45.45
2022-11-07T07:00:49.249Z,40.63
2022-11-07T07:03:15.857Z,46.08
2022-11-07T07:05:42.770Z,41.95
2022-11-07T07:08:11.144Z,42.33
2022-11-07T07:10:45.111Z,41.92
2022-11-07T07:13:14.689Z,43.30
2022-11-07T07:15:51.110Z,40.38
2022-11-07T07:18:18.111Z,44.50
2022-11-07T07:20:45.223Z,43.65
2022-11-07T07:23:11.542Z,41.42
2022-11-07T07:25:37.860Z,41.40
2022-11-07T07:28:04.178Z,40.38
2022-11-07T07:30:30.570Z,41.45
2022-11-07T07:32:56.981Z,40.70
2022-11-07T07:35:23.269Z,43.22
2022-11-07T07:37:53.089Z,42.75
2022-11-07T07:40:20.592Z,40.35
2022-11-07T07:42:47.026Z,38.35
2022-11-07T07:45:14.854Z,35.53
2022-11-07T07:47:41.730Z,38.22
2022-11-07T07:50:10.652Z,39.00
2022-11-07T07:52:37.048Z,41.50
2022-11-07T07:55:03.854Z,39.35
2022-11-07T07:57:30.181Z,40.15
2022-11-07T07:59:56.932Z,36.55
2022-11-07T08:02:23.306Z,38.45
2022-11-07T08:04:49.716Z,38.70
2022-11-07T08:07:16.246Z,38.50
2022-11-07T08:09:42.565Z,44.95
2022-11-07T08:12:09.091Z,40.90
2022-11-07T08:14:35.551Z,42.10
2022-11-07T08:17:02.360Z,45.47
2022-11-07T08:19:28.672Z,37.47
2022-11-07T08:21:55.111Z,44.60
2022-11-07T08:24:21.423Z,42.70
2022-11-07T08:26:47.712Z,42.15
2022-11-07T08:29:14.055Z,41.15
2022-11-07T08:31:40.468Z,41.33
2022-11-07T08:34:06.853Z,41.38
2022-11-07T08:36:33.668Z,44.67
2022-11-07T08:39:00.010Z,42.80
2022-11-07T08:41:26.397Z,40.38
2022-11-07T08:43:52.736Z,40.20
2022-11-07T08:46:19.081Z,36.80
2022-11-07T08:48:45.413Z,37.05
2022-11-07T08:51:11.714Z,39.28
2022-11-07T08:53:38.078Z,38.00
2022-11-07T08:56:06.542Z,41.40
2022-11-07T08:58:33.681Z,39.83
2022-11-07T09:01:00.851Z,40.55
2022-11-07T09:06:13.749Z,40.92
2022-11-07T09:08:46.717Z,43.85
2022-11-07T09:11:15.510Z,41.10
2022-11-07T09:13:41.962Z,39.08
2022-11-07T09:16:08.266Z,43.15
2022-11-07T09:18:34.634Z,48.05
2022-11-07T09:21:00.988Z,47.33
2022-11-07T09:23:27.789Z,50.05
2022-11-07T09:25:54.251Z,46.75
2022-11-07T09:28:20.595Z,49.03
2022-11-07T09:30:46.952Z,54.15
2022-11-07T09:33:13.594Z,55.72
2022-11-07T09:35:40.102Z,58.80
2022-11-07T09:38:06.404Z,59.88
2022-11-07T09:41:05.276Z,68.57
2022-11-07T09:43:49.669Z,62.38
2022-11-07T09:46:43.037Z,58.65
2022-11-07T09:49:21.793Z,57.42
2022-11-07T09:51:56.512Z,54.55
2022-11-07T09:54:27.779Z,55.90
2022-11-07T09:56:57.926Z,57.03
2022-11-07T09:59:29.761Z,55.22
2022-11-07T10:01:56.206Z,58.15
2022-11-07T10:04:26.102Z,53.42
2022-11-07T10:07:00.144Z,48.03
2022-11-07T10:09:52.590Z,50.35
2022-11-07T10:12:40.434Z,48.10
2022-11-07T10:15:26.709Z,50.17
2022-11-07T10:18:16.368Z,46.90
2022-11-07T10:21:36.361Z,50.75
2022-11-07T10:24:23.122Z,52.63
2022-11-07T10:26:49.488Z,52.65
2022-11-07T10:29:21.598Z,51.92
2022-11-07T10:31:56.030Z,49.67
2022-11-07T10:34:37.726Z,48.22
2022-11-07T10:37:04.583Z,48.75
2022-11-07T10:39:32.146Z,48.80
2022-11-07T10:42:09.315Z,49.63
2022-11-07T10:44:38.382Z,54.65
2022-11-07T10:47:18.152Z,61.13
2022-11-07T10:50:16.849Z,44.35
2022-11-07T10:52:55.709Z,45.67
2022-11-07T10:55:22.837Z,32.15
2022-11-07T10:58:05.708Z,31.48
2022-11-07T11:00:34.334Z,31.85
2022-11-07T11:03:00.729Z,34.30
2022-11-07T11:05:43.344Z,31.88
2022-11-07T11:08:21.087Z,30.90
2022-11-07T11:10:48.278Z,32.85
2022-11-07T11:13:32.984Z,31.95
2022-11-07T11:18:34.533Z,29.73
2022-11-07T11:21:03.057Z,34.33
2022-11-07T11:23:31.766Z,33.42
2022-11-07T11:26:01.029Z,32.05
2022-11-07T11:28:36.760Z,31.60
2022-11-07T11:31:08.473Z,32.10
2022-11-07T11:33:42.242Z,34.25
2022-11-07T11:36:25.189Z,33.40
2022-11-07T11:38:54.545Z,30.15
2022-11-07T11:41:37.893Z,31.70
2022-11-07T11:44:23.543Z,30.98
2022-11-07T11:47:02.268Z,30.42
2022-11-07T11:49:30.522Z,30.85
2022-11-07T11:52:03.388Z,33.20
2022-11-07T11:54:29.707Z,32.65
2022-11-07T11:57:01.085Z,34.05
2022-11-07T11:59:45.091Z,32.63
2022-11-07T12:02:17.488Z,32.05
2022-11-07T12:04:55.960Z,31.42
2022-11-07T12:07:58.951Z,32.42
2022-11-07T12:10:27.963Z,31.58
2022-11-07T12:13:06.497Z,33.78
2022-11-07T12:15:40.968Z,33.35
2022-11-07T12:18:24.740Z,34.05
2022-11-07T12:21:05.520Z,32.07
2022-11-07T12:23:49.881Z,35.05
2022-11-07T12:26:35.832Z,31.75
2022-11-07T12:29:22.791Z,36.00
2022-11-07T12:32:19.826Z,34.88
2022-11-07T12:35:15.270Z,34.72
2022-11-07T12:38:10.949Z,33.50
2022-11-07T12:40:59.983Z,32.30
2022-11-07T12:43:42.029Z,33.15
2022-11-07T12:46:19.132Z,33.42
2022-11-07T12:49:00.016Z,33.25
2022-11-07T12:51:54.300Z,32.33
2022-11-07T12:54:39.513Z,33.15
2022-11-07T12:57:20.992Z,36.22
2022-11-07T12:59:52.188Z,33.05
2022-11-07T13:02:30.372Z,33.88
2022-11-07T13:05:15.360Z,34.92
2022-11-07T13:07:57.119Z,36.05
2022-11-07T13:10:34.963Z,32.83
2022-11-07T13:13:05.038Z,31.38
2022-11-07T13:15:53.788Z,32.20
2022-11-07T13:18:27.934Z,29.85
2022-11-07T13:21:01.221Z,32.40
2022-11-07T13:23:28.633Z,32.85
2022-11-07T13:26:14.842Z,33.90
2022-11-07T13:28:56.397Z,33.30
2022-11-07T13:31:45.461Z,29.85
2022-11-07T13:34:17.994Z,27.77
2022-11-07T13:36:47.017Z,30.15
2022-11-07T13:39:14.726Z,30.00
2022-11-07T13:41:44.374Z,31.77
2022-11-07T13:44:17.208Z,30.13
2022-11-07T13:46:49.137Z,29.65
2022-11-07T13:49:26.845Z,29.23
2022-11-07T13:51:56.477Z,27.83
2022-11-07T13:54:28.598Z,28.20
2022-11-07T13:57:05.085Z,27.95
2022-11-07T13:59:43.883Z,27.42
2022-11-07T14:02:30.317Z,28.08
2022-11-07T14:05:20.804Z,28.50
2022-11-07T14:08:04.726Z,28.05
2022-11-07T14:10:38.696Z,29.08
2022-11-07T14:13:07.928Z,30.67
2022-11-07T14:15:36.048Z,29.92
2022-11-07T14:18:03.635Z,31.75
2022-11-07T14:20:30.250Z,30.48
2022-11-07T14:23:00.538Z,31.05
2022-11-07T14:25:32.604Z,29.27
2022-11-07T14:28:00.146Z,30.27
2022-11-07T14:30:29.108Z,31.25
2022-11-07T14:32:58.708Z,31.95
2022-11-07T14:35:35.007Z,28.75
2022-11-07T14:38:15.114Z,29.88
2022-11-07T14:40:42.571Z,27.55
2022-11-07T14:43:15.538Z,28.58
2022-11-07T14:46:11.398Z,28.73
2022-11-07T14:48:32.220Z,29.70
2022-11-07T14:50:59.616Z,27.65
2022-11-07T14:53:32.086Z,27.15
2022-11-07T14:56:03.678Z,30.75
2022-11-07T14:58:31.383Z,29.48
2022-11-07T15:01:10.817Z,29.42
2022-11-07T15:03:49.813Z,30.15
2022-11-07T15:06:28.168Z,30.02
2022-11-07T15:08:57.501Z,28.63
2022-11-07T15:11:36.165Z,30.75
2022-11-07T15:14:05.897Z,29.08
2022-11-07T15:16:37.388Z,30.75
2022-11-07T15:19:06.078Z,29.88
2022-11-07T15:21:37.220Z,31.33
2022-11-07T15:24:34.828Z,31.67
2022-11-07T15:27:16.430Z,29.88
2022-11-07T15:29:57.883Z,30.30
2022-11-07T15:32:28.456Z,28.75
2022-11-07T15:35:23.042Z,30.85
2022-11-07T15:37:57.470Z,31.27
2022-11-07T15:40:26.346Z,29.30
2022-11-07T15:42:52.989Z,30.58
2022-11-07T15:45:20.264Z,29.38
2022-11-07T15:47:47.093Z,31.13
2022-11-07T15:50:20.864Z,31.63
2022-11-07T15:52:48.608Z,30.67
2022-11-07T15:55:17.628Z,30.02
2022-11-07T15:57:46.880Z,29.15
2022-11-07T16:00:19.316Z,29.42
2022-11-07T16:02:46.242Z,30.13
2022-11-07T16:05:13.997Z,30.20
2022-11-07T16:07:42.545Z,29.30
2022-11-07T16:10:24.934Z,29.85
2022-11-07T16:12:52.011Z,28.63
2022-11-07T16:15:21.429Z,30.77
2022-11-07T16:17:48.297Z,30.88
2022-11-07T16:20:17.106Z,31.33
2022-11-07T16:22:45.120Z,31.13
2022-11-07T16:25:21.323Z,32.55
2022-11-07T16:27:59.035Z,29.45
2022-11-07T16:30:25.682Z,31.65
2022-11-07T16:32:52.035Z,30.38
2022-11-07T16:35:18.352Z,32.17
2022-11-07T16:37:44.660Z,31.83
2022-11-07T16:40:14.132Z,31.65
2022-11-07T16:42:40.586Z,31.02
2022-11-07T16:45:07.705Z,31.92
2022-11-07T16:47:39.337Z,34.70
2022-11-07T16:50:06.618Z,33.88
2022-11-07T16:52:33.563Z,34.30
2022-11-07T16:54:59.953Z,32.75
2022-11-07T16:57:26.332Z,34.22
2022-11-07T16:59:52.733Z,32.97
2022-11-07T17:02:24.821Z,33.53
2022-11-07T17:04:53.389Z,35.72
2022-11-07T17:07:22.717Z,34.40
2022-11-07T17:09:49.603Z,35.80
2022-11-07T17:12:24.814Z,34.58
2022-11-07T17:14:51.720Z,34.83
2022-11-07T17:17:19.054Z,34.38
2022-11-07T17:19:45.567Z,35.58
2022-11-07T17:22:13.464Z,36.80
2022-11-07T17:24:40.361Z,35.20
2022-11-07T17:27:25.424Z,35.10
2022-11-07T17:29:53.318Z,36.65
2022-11-07T17:32:20.317Z,35.03
2022-11-07T17:34:54.989Z,35.70
2022-11-07T17:37:33.118Z,34.88
2022-11-07T17:39:59.412Z,36.08
2022-11-07T17:42:25.728Z,35.80
2022-11-07T17:44:52.066Z,35.90
2022-11-07T17:47:28.836Z,35.25
2022-11-07T17:49:55.668Z,35.35
2022-11-07T17:52:22.308Z,35.53
2022-11-07T17:54:48.797Z,37.95
2022-11-07T17:57:15.190Z,34.78
2022-11-07T17:59:45.740Z,37.92
2022-11-07T18:02:18.622Z,34.85
2022-11-07T18:04:45.997Z,33.47
2022-11-07T18:07:12.790Z,34.90
2022-11-07T18:09:42.915Z,35.03
2022-11-07T18:12:10.558Z,36.22
2022-11-07T18:14:37.390Z,35.10
2022-11-07T18:17:04.327Z,35.28
2022-11-07T18:19:30.871Z,35.97
2022-11-07T18:21:57.192Z,37.28
2022-11-07T18:24:24.189Z,37.95
2022-11-07T18:26:51.782Z,35.35
2022-11-07T18:29:18.698Z,35.40
2022-11-07T18:31:47.291Z,36.78
2022-11-07T18:34:14.273Z,34.97
2022-11-07T18:36:42.340Z,37.63
2022-11-07T18:39:15.515Z,34.22
2022-11-07T18:41:42.347Z,35.35
2022-11-07T18:44:10.335Z,35.20
2022-11-07T18:46:37.263Z,36.22
2022-11-07T18:49:05.118Z,34.60
2022-11-07T18:51:32.477Z,36.47
2022-11-07T18:54:01.484Z,34.13
2022-11-07T18:56:28.282Z,34.67
2022-11-07T18:58:55.682Z,36.38
2022-11-07T19:01:26.449Z,36.03
2022-11-07T19:03:53.701Z,35.08
2022-11-07T19:06:22.089Z,37.08
2022-11-07T19:08:49.004Z,35.50
2022-11-07T19:11:18.159Z,35.88
2022-11-07T19:13:45.600Z,36.92
2022-11-07T19:16:16.963Z,36.78
2022-11-07T19:18:49.151Z,36.90
2022-11-07T19:21:19.690Z,36.58
2022-11-07T19:23:46.990Z,36.03
2022-11-07T19:26:13.852Z,37.70
2022-11-07T19:28:40.818Z,36.08
2022-11-07T19:31:09.877Z,38.08
2022-11-07T19:33:36.801Z,37.35
2022-11-07T19:36:06.636Z,35.22
2022-11-07T19:38:33.716Z,39.33
2022-11-07T19:41:05.161Z,37.25
2022-11-07T19:43:31.885Z,34.40
2022-11-07T19:45:59.117Z,37.05
2022-11-07T19:48:25.633Z,36.33
2022-11-07T19:50:52.065Z,31.88
2022-11-07T19:53:18.802Z,33.75
2022-11-07T19:55:45.323Z,33.08
2022-11-07T19:58:11.662Z,32.38
2022-11-07T20:00:38.110Z,31.65
2022-11-07T20:03:09.665Z,34.00
2022-11-07T20:05:43.809Z,31.73
2022-11-07T20:08:15.831Z,33.08
2022-11-07T20:10:46.681Z,31.38
2022-11-07T20:13:13.031Z,31.88
2022-11-07T20:15:39.819Z,30.60
2022-11-07T20:18:06.289Z,29.27
2022-11-07T20:20:32.604Z,30.80
2022-11-07T20:23:00.230Z,31.20
2022-11-07T20:25:26.716Z,29.88
2022-11-07T20:27:53.052Z,31.23
2022-11-07T20:30:19.729Z,31.58
2022-11-07T20:32:46.578Z,30.60
2022-11-07T20:35:12.899Z,30.98
2022-11-07T20:37:39.314Z,31.05
2022-11-07T20:40:06.322Z,29.00
2022-11-07T20:42:32.742Z,29.30
2022-11-07T20:44:59.136Z,30.05
2022-11-07T20:47:25.510Z,29.38
2022-11-07T20:49:51.847Z,31.65
2022-11-07T20:52:18.348Z,28.65
2022-11-07T20:54:44.766Z,29.45
2022-11-07T20:57:11.122Z,29.48
2022-11-07T20:59:37.595Z,30.23
2022-11-07T21:02:04.353Z,29.33
2022-11-07T21:04:44.412Z,29.75
2022-11-07T21:07:19.537Z,30.95
2022-11-07T21:09:46.262Z,31.27
2022-11-07T21:12:13.088Z,31.38
2022-11-07T21:14:41.561Z,32.35
2022-11-07T21:17:09.067Z,32.88
2022-11-07T21:19:35.365Z,31.15
2022-11-07T21:22:01.676Z,33.38
2022-11-07T21:24:31.630Z,31.70
2022-11-07T21:26:58.524Z,34.63
2022-11-07T21:29:29.453Z,33.20
2022-11-07T21:31:56.025Z,34.33
2022-11-07T21:34:22.349Z,33.10
2022-11-07T21:36:48.686Z,31.17
2022-11-07T21:39:16.194Z,34.38
2022-11-07T21:41:42.600Z,30.58
2022-11-07T21:44:11.163Z,33.97
2022-11-07T21:46:37.756Z,31.42
2022-11-07T21:49:06.014Z,33.58
2022-11-07T21:51:34.222Z,33.63
2022-11-07T21:54:01.433Z,33.92
2022-11-07T21:56:30.369Z,34.92
2022-11-07T21:59:00.137Z,35.50
2022-11-07T22:01:28.017Z,35.55
2022-11-07T22:04:11.188Z,34.95
2022-11-07T22:06:40.870Z,35.25
2022-11-07T22:09:08.923Z,36.65
2022-11-07T22:11:35.511Z,37.45
2022-11-07T22:14:02.579Z,35.53
2022-11-07T22:16:29.188Z,37.58
2022-11-07T22:18:55.647Z,35.85
2022-11-07T22:21:23.306Z,35.92
2022-11-07T22:23:50.480Z,36.03
2022-11-07T22:26:20.151Z,35.17
2022-11-07T22:28:47.368Z,37.58
2022-11-07T22:31:32.043Z,37.53
2022-11-07T22:36:25.898Z,32.63
2022-11-07T22:38:52.282Z,37.63
2022-11-07T22:41:24.048Z,36.30
2022-11-07T22:43:51.137Z,38.25
2022-11-07T22:46:20.572Z,37.17
2022-11-07T22:48:48.622Z,37.17
2022-11-07T22:51:18.061Z,38.83
2022-11-07T22:53:44.392Z,38.80
2022-11-07T22:56:13.205Z,38.03
2022-11-07T22:58:40.157Z,36.25
2022-11-07T23:01:13.300Z,38.10
2022-11-07T23:03:39.630Z,38.35
2022-11-07T23:06:06.071Z,39.70
2022-11-07T23:08:36.269Z,39.05
2022-11-07T23:14:00.266Z,38.80
2022-11-07T23:16:37.372Z,38.40
2022-11-07T23:19:06.757Z,40.33
2022-11-07T23:21:33.726Z,39.75
2022-11-07T23:24:00.904Z,39.47
2022-11-07T23:26:35.218Z,40.22
2022-11-07T23:31:37.220Z,37.67
2022-11-07T23:34:04.040Z,39.35
2022-11-07T23:36:30.359Z,43.15
2022-11-07T23:38:56.786Z,40.47
2022-11-07T23:41:23.114Z,38.42
2022-11-07T23:43:52.444Z,38.95
2022-11-07T23:46:37.768Z,42.22
2022-11-07T23:49:22.446Z,39.90
2022-11-07T23:54:33.581Z,37.30
2022-11-07T23:57:00.583Z,40.38
2022-11-07T23:59:45.714Z,39.50
